Time;durP1;ratioP1;P1;durP2;ratioP2;P2;SDS_P1;SDS_P2;PMS_P1;PMS_P2;Temp;Humidity;BMP_temperature;BMP_pressure;BME280_temperature;BME280_humidity;BME280_pressure;Samples;Min_cycle;Max_cycle;Signal;HPM_P1;HPM_P2
2021/04/21 00:01:47;;;;;;;1999.90;999.90;;;9.40;99.90;;;;;;5035510;28;20161;-84
2021/04/21 00:04:15;;;;;;;1999.90;999.90;;;9.50;99.90;;;;;;5035894;28;20690;-84
2021/04/21 00:06:41;;;;;;;1999.90;999.90;;;9.60;99.90;;;;;;5035393;28;20185;-84
2021/04/21 00:09:15;;;;;;;1999.90;999.90;;;9.50;99.90;;;;;;5035594;28;20738;-84
2021/04/21 00:11:41;;;;;;;1999.90;999.90;;;9.50;99.90;;;;;;5035692;28;20166;-84
2021/04/21 00:14:08;;;;;;;1999.90;999.90;;;9.50;99.90;;;;;;5035524;28;20204;-84
2021/04/21 00:16:36;;;;;;;1999.90;999.90;;;9.60;99.90;;;;;;5017591;28;20201;-84
2021/04/21 00:19:03;;;;;;;1999.90;999.90;;;9.60;99.90;;;;;;5035462;28;20173;-84
2021/04/21 00:21:32;;;;;;;1999.90;999.90;;;9.60;99.90;;;;;;5017411;28;20177;-84
2021/04/21 00:24:00;;;;;;;1999.90;999.90;;;9.50;99.90;;;;;;5035810;28;20200;-84
2021/04/21 00:26:25;;;;;;;1999.90;999.90;;;9.50;99.90;;;;;;5017300;28;20672;-84
2021/04/21 00:28:53;;;;;;;1999.90;999.90;;;9.60;99.90;;;;;;5017147;28;20181;-84
2021/04/21 00:31:22;;;;;;;1999.90;999.90;;;9.70;99.90;;;;;;5035293;28;20400;-84
2021/04/21 00:33:54;;;;;;;1999.90;999.90;;;9.80;99.90;;;;;;5017645;28;20169;-84
2021/04/21 00:36:21;;;;;;;1999.90;999.90;;;9.80;99.90;;;;;;5017151;28;20228;-84
2021/04/21 00:38:51;;;;;;;1999.90;999.90;;;9.70;99.90;;;;;;5035014;28;20172;-84
2021/04/21 00:41:38;;;;;;;1999.90;999.90;;;9.60;99.90;;;;;;5034907;28;20161;-84
2021/04/21 00:44:40;;;;;;;1999.90;999.90;;;9.60;99.90;;;;;;5035480;28;20508;-84
2021/04/21 00:47:12;;;;;;;1999.90;999.90;;;9.70;99.90;;;;;;5017129;28;20200;-84
2021/04/21 00:50:04;;;;;;;1999.90;999.90;;;9.60;99.90;;;;;;5034675;28;20169;-84
2021/04/21 00:52:59;;;;;;;1999.90;999.90;;;9.70;99.90;;;;;;5007860;28;20544;-83
2021/04/21 00:56:09;;;;;;;1999.90;999.90;;;9.70;99.90;;;;;;5021654;28;20186;-84
2021/04/21 00:59:10;;;;;;;1999.90;999.90;;;9.70;99.90;;;;;;5034899;28;20166;-84
2021/04/21 01:01:39;;;;;;;1999.90;999.90;;;9.70;99.90;;;;;;5013914;28;20263;-84
2021/04/21 01:04:06;;;;;;;1999.90;999.90;;;9.60;99.90;;;;;;5034937;28;20168;-84
2021/04/21 01:06:43;;;;;;;1999.90;999.90;;;9.70;99.90;;;;;;5034398;28;20696;-84
2021/04/21 01:09:12;;;;;;;1999.90;999.90;;;9.70;99.90;;;;;;5035746;28;20184;-84
2021/04/21 01:11:41;;;;;;;1999.90;999.90;;;9.70;99.90;;;;;;5039346;28;20189;-84
2021/04/21 01:14:12;;;;;;;1999.90;999.90;;;9.50;99.90;;;;;;5038044;28;20185;-84
2021/04/21 01:16:40;;;;;;;1999.90;999.90;;;9.40;99.90;;;;;;5038241;28;20185;-84
2021/04/21 01:19:26;;;;;;;1999.90;999.90;;;9.30;99.90;;;;;;5020068;28;20223;-84
2021/04/21 01:21:55;;;;;;;1999.90;999.90;;;9.20;99.90;;;;;;5007347;28;20650;-84
2021/04/21 01:24:49;;;;;;;1999.90;999.90;;;9.00;99.90;;;;;;5020189;28;20169;-84
2021/04/21 01:27:21;;;;;;;1999.90;999.90;;;8.90;99.90;;;;;;5020882;28;20205;-84
2021/04/21 01:29:52;;;;;;;1999.90;999.90;;;8.90;99.90;;;;;;5038011;28;20154;-84
2021/04/21 01:32:19;;;;;;;1999.90;999.90;;;8.80;99.90;;;;;;5038182;28;20149;-84
2021/04/21 01:34:47;;;;;;;1999.90;999.90;;;8.70;99.90;;;;;;5038249;28;20161;-84
2021/04/21 01:37:18;;;;;;;1999.90;999.90;;;8.60;99.90;;;;;;5019941;28;20685;-84
2021/04/21 01:39:51;;;;;;;1999.90;999.90;;;8.50;99.90;;;;;;5038078;28;20154;-84
2021/04/21 01:42:19;;;;;;;1999.90;999.90;;;8.50;99.90;;;;;;5038300;28;20157;-84
2021/04/21 01:44:47;;;;;;;1999.90;999.90;;;8.40;99.90;;;;;;5037765;28;20215;-84
2021/04/21 01:47:20;;;;;;;1999.90;999.90;;;8.40;99.90;;;;;;5037210;28;20563;-84
2021/04/21 01:49:51;;;;;;;1999.90;999.90;;;8.50;99.90;;;;;;5019520;28;20524;-84
2021/04/21 01:52:35;;;;;;;1999.90;999.90;;;8.50;99.90;;;;;;5092976;22;20224;-80
2021/04/21 01:55:07;;;;;;;1999.90;999.90;;;8.50;99.90;;;;;;5039002;28;20152;-80
2021/04/21 01:57:45;;;;;;;1999.90;999.90;;;8.30;99.90;;;;;;5038421;28;20212;-81
2021/04/21 02:00:20;;;;;;;1999.90;999.90;;;8.40;99.90;;;;;;5038803;28;20177;-80
2021/04/21 02:03:01;;;;;;;1999.90;999.90;;;8.40;99.90;;;;;;5021092;28;20164;-80
2021/04/21 02:05:54;;;;;;;1999.90;999.90;;;8.30;99.90;;;;;;5038609;28;20567;-81
2021/04/21 02:08:29;;;;;;;1999.90;999.90;;;8.30;99.90;;;;;;5020877;28;20283;-80
2021/04/21 02:11:10;;;;;;;1999.90;999.90;;;8.20;99.90;;;;;;5038095;28;20175;-80
2021/04/21 02:13:51;;;;;;;1999.90;999.90;;;8.10;99.90;;;;;;5038612;28;20185;-80
2021/04/21 02:16:38;;;;;;;1999.90;999.90;;;8.10;99.90;;;;;;5020018;28;20158;-80
2021/04/21 02:19:39;;;;;;;1999.90;999.90;;;8.00;99.90;;;;;;5037856;28;20185;-80
2021/04/21 02:22:16;;;;;;;1999.90;999.90;;;8.00;99.90;;;;;;4996069;28;20178;-80
2021/04/21 02:25:03;;;;;;;1999.90;999.90;;;7.90;99.90;;;;;;5032292;28;20256;-80
2021/04/21 02:27:52;;;;;;;1999.90;999.90;;;7.90;99.90;;;;;;5019976;28;20204;-80
2021/04/21 02:30:35;;;;;;;1999.90;999.90;;;8.00;99.90;;;;;;5038066;28;20641;-80
2021/04/21 02:33:13;;;;;;;1999.90;999.90;;;7.90;99.90;;;;;;5037710;28;20625;-80
2021/04/21 02:35:52;;;;;;;1999.90;999.90;;;7.80;99.90;;;;;;5037937;28;20165;-80
2021/04/21 02:38:59;;;;;;;1999.90;999.90;;;7.80;99.90;;;;;;5037599;28;20745;-80
2021/04/21 02:41:58;;;;;;;1999.90;999.90;;;7.80;99.90;;;;;;5037901;28;20228;-80
2021/04/21 02:44:43;;;;;;;1999.90;999.90;;;8.00;99.90;;;;;;5018298;28;20176;-80
2021/04/21 02:47:30;;;;;;;1999.90;999.90;;;7.90;99.90;;;;;;5037122;28;20203;-80
2021/04/21 02:49:59;;;;;;;1999.90;999.90;;;7.80;99.90;;;;;;5037780;28;20157;-80
2021/04/21 02:52:49;;;;;;;1999.90;999.90;;;7.70;99.90;;;;;;5036932;28;20181;-80
2021/04/21 02:55:18;;;;;;;1999.90;999.90;;;7.60;99.90;;;;;;5019473;28;20175;-80
2021/04/21 02:58:05;;;;;;;1999.90;999.90;;;7.60;99.90;;;;;;5036901;28;20260;-80
2021/04/21 03:01:01;;;;;;;1999.90;999.90;;;7.60;99.90;;;;;;5037149;28;20172;-80
2021/04/21 03:03:48;;;;;;;1999.90;999.90;;;7.60;99.90;;;;;;5035857;28;20177;-80
2021/04/21 03:06:29;;;;;;;1999.90;999.90;;;7.50;99.90;;;;;;5037024;28;20184;-80
2021/04/21 03:09:13;;;;;;;1999.90;999.90;;;7.50;99.90;;;;;;5021017;28;20153;-80
2021/04/21 03:11:41;;;;;;;1999.90;999.90;;;7.40;99.90;;;;;;5036992;28;20556;-80
2021/04/21 03:14:15;;;;;;;1999.90;999.90;;;7.40;99.90;;;;;;5036844;28;20228;-80
2021/04/21 03:16:47;;;;;;;1999.90;999.90;;;7.40;99.90;;;;;;5037251;28;20185;-80
2021/04/21 03:19:15;;;;;;;1999.90;999.90;;;7.40;99.90;;;;;;5037004;28;20215;-80
2021/04/21 03:21:46;;;;;;;1999.90;999.90;;;7.40;99.90;;;;;;5037109;28;20244;-80
2021/04/21 03:24:18;;;;;;;1999.90;999.90;;;7.30;99.90;;;;;;5019962;28;20161;-80
2021/04/21 03:26:49;;;;;;;1999.90;999.90;;;7.30;99.90;;;;;;5036587;28;20246;-80
2021/04/21 03:29:39;;;;;;;1999.90;999.90;;;7.20;99.90;;;;;;5036996;28;20238;-80
2021/04/21 03:32:13;;;;;;;1999.90;999.90;;;7.30;99.90;;;;;;5013468;28;20587;-80
2021/04/21 03:34:42;;;;;;;1999.90;999.90;;;7.30;99.90;;;;;;5019743;28;20668;-80
2021/04/21 03:37:33;;;;;;;1999.90;999.90;;;7.30;99.90;;;;;;5036634;28;20189;-80
2021/04/21 03:40:00;;;;;;;1999.90;999.90;;;7.20;99.90;;;;;;5015359;28;20181;-80
2021/04/21 03:42:25;;;;;;;1999.90;999.90;;;7.20;99.90;;;;;;5036383;28;20161;-83
2021/04/21 03:44:54;;;;;;;1999.90;999.90;;;7.10;99.90;;;;;;5036320;28;20168;-81
2021/04/21 03:47:20;;;;;;;1999.90;999.90;;;7.10;99.90;;;;;;5036496;28;20196;-81
2021/04/21 03:49:46;;;;;;;1999.90;999.90;;;7.10;99.90;;;;;;5018362;28;20529;-81
2021/04/21 03:52:13;;;;;;;1999.90;999.90;;;7.10;99.90;;;;;;5036404;28;20172;-81
2021/04/21 03:54:43;;;;;;;1999.90;999.90;;;7.10;99.90;;;;;;5035863;28;20169;-81
2021/04/21 03:57:12;;;;;;;1999.90;999.90;;;7.10;99.90;;;;;;5035959;28;20184;-81
2021/04/21 03:59:40;;;;;;;1999.90;999.90;;;7.10;99.90;;;;;;5018233;28;20177;-81
2021/04/21 04:02:10;;;;;;;1999.90;999.90;;;7.10;99.90;;;;;;5036137;28;20183;-80
2021/04/21 04:04:40;;;;;;;1999.90;999.90;;;7.20;99.90;;;;;;5036348;28;20196;-80
2021/04/21 04:07:11;;;;;;;1999.90;999.90;;;7.30;99.90;;;;;;5035684;28;20201;-80
2021/04/21 04:09:39;;;;;;;1999.90;999.90;;;7.30;99.90;;;;;;5036264;28;20145;-81
2021/04/21 04:12:06;;;;;;;1999.90;999.90;;;7.30;99.90;;;;;;5035837;28;20633;-81
2021/04/21 04:14:34;;;;;;;1999.90;999.90;;;7.30;99.90;;;;;;5017737;28;20177;-80
2021/04/21 04:17:03;;;;;;;1999.90;999.90;;;7.40;99.90;;;;;;5035541;28;20522;-81
2021/04/21 04:19:32;;;;;;;1999.90;999.90;;;7.40;99.90;;;;;;5018319;28;20231;-81
2021/04/21 04:22:07;;;;;;;1999.90;999.90;;;7.30;99.90;;;;;;5035598;28;20165;-81
2021/04/21 04:24:44;;;;;;;1999.90;999.90;;;7.40;99.90;;;;;;5018249;28;20169;-81
2021/04/21 04:27:21;;;;;;;1999.90;999.90;;;7.50;99.90;;;;;;5035647;28;20545;-80
2021/04/21 04:29:48;;;;;;;1999.90;999.90;;;7.50;99.90;;;;;;5035631;28;20238;-80
2021/04/21 04:32:17;;;;;;;1999.90;999.90;;;7.50;99.90;;;;;;5036078;28;20157;-80
2021/04/21 04:34:44;;;;;;;1999.90;999.90;;;7.60;99.90;;;;;;5035824;28;20161;-81
2021/04/21 04:37:16;;;;;;;1999.90;999.90;;;7.70;99.90;;;;;;5035366;28;20591;-80
2021/04/21 04:39:42;;;;;;;1999.90;999.90;;;7.70;99.90;;;;;;5016574;28;20154;-80
2021/04/21 04:42:09;;;;;;;1999.90;999.90;;;7.70;99.90;;;;;;5016247;28;20169;-80
2021/04/21 04:44:36;;;;;;;1999.90;999.90;;;7.80;99.90;;;;;;5039205;28;20166;-80
2021/04/21 04:47:05;;;;;;;1999.90;999.90;;;7.70;99.90;;;;;;5039558;28;20196;-81
2021/04/21 04:49:38;;;;;;;1999.90;999.90;;;7.70;99.90;;;;;;5023111;28;20636;-81
2021/04/21 04:52:07;;;;;;;1999.90;999.90;;;7.70;99.90;;;;;;5023258;28;20677;-81
2021/04/21 04:54:35;;;;;;;1999.90;999.90;;;7.90;99.90;;;;;;5038649;28;20153;-80
2021/04/21 04:57:02;;;;;;;1999.90;999.90;;;7.80;99.90;;;;;;5020978;28;20193;-80
2021/04/21 04:59:31;;;;;;;1999.90;999.90;;;7.70;99.90;;;;;;5038980;28;20166;-81
2021/04/21 05:01:58;;;;;;;1999.90;999.90;;;7.90;99.90;;;;;;5040087;28;20177;-81
2021/04/21 05:04:40;;;;;;;1999.90;999.90;;;7.80;99.90;;;;;;5021835;28;20177;-81
2021/04/21 05:07:07;;;;;;;1999.90;999.90;;;7.80;99.90;;;;;;5022105;28;20231;-81
2021/04/21 05:09:41;;;;;;;1999.90;999.90;;;7.80;99.90;;;;;;5038918;28;20166;-80
2021/04/21 05:12:11;;;;;;;1999.90;999.90;;;7.90;99.90;;;;;;5039125;28;20172;-80
2021/04/21 05:14:56;;;;;;;1999.90;999.90;;;8.00;99.90;;;;;;5040145;28;20544;-80
2021/04/21 05:18:02;;;;;;;1999.90;999.90;;;8.10;99.90;;;;;;5018095;28;20197;-80
2021/04/21 05:20:42;;;;;;;1999.90;999.90;;;8.30;99.90;;;;;;5039113;28;20157;-81
2021/04/21 05:24:02;;;;;;;1999.90;999.90;;;8.30;99.90;;;;;;5038782;28;20153;-80
2021/04/21 05:26:37;;;;;;;1999.90;999.90;;;8.50;99.90;;;;;;5022465;28;20213;-81
2021/04/21 05:29:35;;;;;;;1999.90;999.90;;;8.70;99.90;;;;;;5039243;28;20538;-81
2021/04/21 05:32:25;;;;;;;1999.90;999.90;;;8.80;99.90;;;;;;4986049;28;20252;-81
2021/04/21 05:35:47;;;;;;;1999.90;999.90;;;8.90;99.90;;;;;;5038983;28;20177;-81
2021/04/21 05:38:25;;;;;;;1999.90;999.90;;;8.90;99.90;;;;;;5038892;28;20664;-81
2021/04/21 05:40:56;;;;;;;1999.90;999.90;;;9.10;99.90;;;;;;5038592;28;20176;-80
2021/04/21 05:44:03;;;;;;;1999.90;999.90;;;9.20;99.90;;;;;;5038333;28;20169;-81
2021/04/21 05:47:14;;;;;;;1999.90;999.90;;;9.30;99.90;;;;;;5020587;28;20227;-80
2021/04/21 05:49:45;;;;;;;1999.90;999.90;;;9.40;99.90;;;;;;5020280;28;20170;-81
2021/04/21 05:52:35;;;;;;;1999.90;999.90;;;9.50;99.90;;;;;;5037947;28;20184;-80
2021/04/21 05:55:37;;;;;;;1999.90;999.90;;;9.60;99.90;;;;;;5037556;28;20161;-81
2021/04/21 05:58:24;;;;;;;1999.90;999.90;;;9.70;99.90;;;;;;5038208;28;20180;-81
2021/04/21 06:01:28;;;;;;;1999.90;999.90;;;9.70;99.90;;;;;;5020289;28;20169;-82
2021/04/21 06:03:58;;;;;;;1999.90;999.90;;;9.90;99.90;;;;;;5017477;28;20239;-82
2021/04/21 06:06:24;;;;;;;1999.90;999.90;;;9.90;99.90;;;;;;5020454;28;20730;-82
2021/04/21 06:08:50;;;;;;;1999.90;999.90;;;9.80;99.90;;;;;;5038004;28;20150;-81
2021/04/21 06:11:18;;;;;;;1999.90;999.90;;;9.80;99.90;;;;;;5037797;28;20145;-81
2021/04/21 06:13:45;;;;;;;1999.90;999.90;;;9.80;99.90;;;;;;5038229;28;20149;-81
2021/04/21 06:16:16;;;;;;;1999.90;999.90;;;9.80;99.90;;;;;;5038442;28;20150;-81
2021/04/21 06:18:43;;;;;;;1999.90;999.90;;;9.90;99.90;;;;;;5019605;28;20172;-81
2021/04/21 06:21:17;;;;;;;1999.90;999.90;;;9.90;99.90;;;;;;5037595;28;20733;-81
2021/04/21 06:23:42;;;;;;;1999.90;999.90;;;9.90;99.90;;;;;;5037565;28;20249;-81
2021/04/21 06:26:08;;;;;;;1999.90;999.90;;;9.90;99.90;;;;;;5037803;28;20217;-81
2021/04/21 06:28:34;;;;;;;1999.90;999.90;;;10.00;99.90;;;;;;5037600;28;20195;-80
2021/04/21 06:31:06;;;;;;;1999.90;999.90;;;9.90;99.90;;;;;;5038170;28;20173;-81
2021/04/21 06:33:40;;;;;;;1999.90;999.90;;;9.90;99.90;;;;;;5039955;28;20420;-81
2021/04/21 06:36:08;;;;;;;1999.90;999.90;;;10.00;99.90;;;;;;5020641;28;20149;-81
2021/04/21 06:38:35;;;;;;;1999.90;999.90;;;10.00;99.90;;;;;;5037515;28;20161;-81
2021/04/21 06:41:01;;;;;;;1999.90;999.90;;;10.00;99.90;;;;;;5037464;28;20193;-80
2021/04/21 06:43:31;;;;;;;1999.90;999.90;;;10.00;99.90;;;;;;5037140;28;20170;-80
2021/04/21 06:45:57;;;;;;;1999.90;999.90;;;9.90;99.90;;;;;;5036768;28;20918;-80
2021/04/21 06:48:27;;;;;;;1999.90;999.90;;;9.90;99.90;;;;;;5037181;28;20189;-80
2021/04/21 06:50:53;;;;;;;1999.90;999.90;;;9.80;99.90;;;;;;5036881;28;20184;-80
2021/04/21 06:53:30;;;;;;;1999.90;999.90;;;9.80;99.90;;;;;;5036883;28;20184;-80
2021/04/21 06:55:58;;;;;;;1999.90;999.90;;;9.80;99.90;;;;;;5019965;28;20161;-80
2021/04/21 06:58:30;;;;;;;1999.90;999.90;;;9.80;99.90;;;;;;5036909;28;20181;-80
2021/04/21 07:01:07;;;;;;;1999.90;999.90;;;9.80;99.90;;;;;;5019904;28;20244;-80
2021/04/21 07:03:36;;;;;;;1999.90;999.90;;;9.70;99.90;;;;;;5019523;28;20161;-80
2021/04/21 07:06:02;;;;;;;1999.90;999.90;;;9.80;99.90;;;;;;5018252;28;20276;-80
2021/04/21 07:08:32;;;;;;;1999.90;999.90;;;9.70;99.90;;;;;;5018802;28;20181;-80
2021/04/21 07:10:59;;;;;;;1999.90;999.90;;;9.80;99.90;;;;;;5036797;28;20204;-81
2021/04/21 07:13:36;;;;;;;1999.90;999.90;;;9.80;99.90;;;;;;5019756;28;20216;-80
2021/04/21 07:16:08;;;;;;;1999.90;999.90;;;9.80;99.90;;;;;;5019584;28;20191;-80
2021/04/21 07:18:37;;;;;;;1999.90;999.90;;;9.80;99.90;;;;;;5019119;28;20169;-80
2021/04/21 07:21:05;;;;;;;1999.90;999.90;;;9.80;99.90;;;;;;5036469;28;20571;-80
2021/04/21 07:23:32;;;;;;;1999.90;999.90;;;9.90;99.90;;;;;;5018462;28;20197;-80
2021/04/21 07:26:01;;;;;;;1999.90;999.90;;;10.00;99.90;;;;;;5036475;28;20621;-80
2021/04/21 07:28:30;;;;;;;1999.90;999.90;;;10.00;99.90;;;;;;5036259;28;20185;-80
2021/04/21 07:30:56;;;;;;;1999.90;999.90;;;10.10;99.90;;;;;;5019145;28;20171;-81
2021/04/21 07:33:39;;;;;;;1999.90;999.90;;;10.30;99.90;;;;;;5019191;28;20688;-81
2021/04/21 07:36:19;;;;;;;1999.90;999.90;;;10.40;99.90;;;;;;5036660;28;20922;-80
2021/04/21 07:38:50;;;;;;;1999.90;999.90;;;10.50;99.90;;;;;;5036807;28;20157;-81
2021/04/21 07:41:31;;;;;;;1999.90;999.90;;;10.60;99.90;;;;;;5018853;28;20337;-81
2021/04/21 07:43:57;;;;;;;1999.90;999.90;;;10.80;99.90;;;;;;5019432;28;20177;-81
2021/04/21 07:46:25;;;;;;;1999.90;999.90;;;10.90;99.90;;;;;;5018493;28;20204;-81
2021/04/21 07:48:53;;;;;;;1999.90;999.90;;;11.00;99.90;;;;;;5018426;28;20168;-81
2021/04/21 07:54:35;;;;;;;1999.90;999.90;;;11.20;99.90;;;;;;5013576;28;20197;-84
2021/04/21 07:57:36;;;;;;;1999.90;999.90;;;11.20;99.90;;;;;;5054920;28;20191;-84
2021/04/21 08:00:29;;;;;;;1999.90;999.90;;;11.10;99.90;;;;;;5037068;28;20164;-84
2021/04/21 08:03:09;;;;;;;1999.90;999.90;;;11.30;99.90;;;;;;5054603;28;20176;-84
2021/04/21 08:06:00;;;;;;;1999.90;999.90;;;11.30;99.90;;;;;;5054626;28;20194;-84
2021/04/21 08:08:39;;;;;;;1999.90;999.90;;;11.40;99.90;;;;;;5054607;28;20687;-84
2021/04/21 08:11:17;;;;;;;1999.90;999.90;;;11.50;99.90;;;;;;5055133;28;20182;-84
2021/04/21 08:13:49;;;;;;;1999.90;999.90;;;11.50;99.90;;;;;;5054804;28;20160;-84
2021/04/21 08:16:29;;;;;;;1999.90;999.90;;;11.60;99.90;;;;;;5054298;28;20575;-83
2021/04/21 08:18:55;;;;;;;1999.90;999.90;;;11.60;99.90;;;;;;5054989;28;20191;-84
2021/04/21 08:21:39;;;;;;;1999.90;999.90;;;11.50;99.90;;;;;;5036892;28;20589;-83
2021/04/21 08:24:09;;;;;;;1999.90;999.90;;;11.70;99.90;;;;;;5054878;28;20454;-84
2021/04/21 08:26:48;;;;;;;1999.90;999.90;;;11.80;99.90;;;;;;5037244;28;20350;-83
2021/04/21 08:29:15;;;;;;;1999.90;999.90;;;11.90;99.90;;;;;;5054663;28;20663;-83
2021/04/21 08:32:24;;;;;;;1999.90;999.90;;;12.00;99.90;;;;;;5054679;28;20190;-83
2021/04/21 08:35:31;;;;;;;1999.90;999.90;;;12.00;99.90;;;;;;5033607;28;20180;-83
2021/04/21 08:38:10;;;;;;;1999.90;999.90;;;12.20;99.90;;;;;;5036581;28;20184;-83
2021/04/21 08:40:43;;;;;;;1999.90;999.90;;;12.20;99.90;;;;;;5038192;28;20619;-84
2021/04/21 08:43:30;;;;;;;1999.90;999.90;;;12.30;99.90;;;;;;5039138;28;20676;-84
2021/04/21 08:46:08;;;;;;;1999.90;999.90;;;12.40;99.90;;;;;;5055438;28;20153;-83
2021/04/21 08:48:41;;;;;;;1999.90;999.90;;;12.50;99.90;;;;;;5037117;28;20243;-84
2021/04/21 08:51:20;;;;;;;1999.90;999.90;;;12.60;99.90;;;;;;5037018;28;20172;-83
2021/04/21 08:54:02;;;;;;;1999.90;999.90;;;12.70;99.90;;;;;;5037595;28;20283;-83
2021/04/21 08:56:44;;;;;;;1999.90;999.90;;;12.70;99.90;;;;;;5051869;28;20207;-83
2021/04/21 08:59:12;;;;;;;1999.90;999.90;;;12.90;99.90;;;;;;5055168;28;20520;-83
2021/04/21 09:01:58;;;;;;;1999.90;999.90;;;13.10;99.90;;;;;;5035492;28;20176;-84
2021/04/21 09:04:27;;;;;;;1999.90;999.90;;;13.20;99.90;;;;;;5037781;28;20624;-84
2021/04/21 09:06:55;;;;;;;1999.90;999.90;;;13.30;99.90;;;;;;5036819;28;20291;-84
2021/04/21 09:09:34;;;;;;;1999.90;999.90;;;13.40;99.90;;;;;;5037761;28;20261;-84
2021/04/21 09:12:06;;;;;;;1999.90;999.90;;;13.40;99.90;;;;;;5038475;28;20584;-83
2021/04/21 09:14:42;;;;;;;1999.90;999.90;;;13.50;99.90;;;;;;5037028;28;20173;-83
2021/04/21 09:17:10;;;;;;;1999.90;999.90;;;13.60;99.90;;;;;;5037212;28;20720;-83
2021/04/21 09:19:46;;;;;;;1999.90;999.90;;;13.80;99.90;;;;;;5038122;28;20267;-83
2021/04/21 09:22:12;;;;;;;1999.90;999.90;;;14.00;99.90;;;;;;5055999;28;20179;-84
2021/04/21 09:24:44;;;;;;;1999.90;999.90;;;14.20;99.90;;;;;;5055198;28;20409;-83
2021/04/21 09:27:56;;;;;;;1999.90;999.90;;;14.40;99.90;;;;;;5054727;28;20624;-83
2021/04/21 09:30:26;;;;;;;1999.90;999.90;;;14.50;99.90;;;;;;4998495;28;20166;-83
2021/04/21 09:32:59;;;;;;;1999.90;999.90;;;14.50;99.90;;;;;;5036620;28;20179;-83
2021/04/21 09:35:43;;;;;;;1999.90;999.90;;;14.70;99.90;;;;;;5041451;28;20474;-83
2021/04/21 09:38:11;;;;;;;1999.90;999.90;;;14.80;99.90;;;;;;5057891;28;20423;-83
2021/04/21 09:40:43;;;;;;;1999.90;999.90;;;14.90;99.90;;;;;;5040358;28;20415;-83
2021/04/21 09:43:20;;;;;;;1999.90;999.90;;;15.10;99.90;;;;;;5040019;28;20507;-83
2021/04/21 09:45:52;;;;;;;1999.90;999.90;;;15.10;99.90;;;;;;5058100;28;20886;-83
2021/04/21 09:48:28;;;;;;;1999.90;999.90;;;15.20;99.90;;;;;;5040028;28;20937;-83
2021/04/21 09:51:11;;;;;;;1999.90;999.90;;;15.30;99.90;;;;;;5039733;28;20411;-83
2021/04/21 09:53:53;;;;;;;1999.90;999.90;;;15.20;99.90;;;;;;5057458;28;20399;-83
2021/04/21 09:56:25;;;;;;;1999.90;999.90;;;15.10;99.90;;;;;;5057566;28;20436;-83
2021/04/21 09:59:02;;;;;;;1999.90;999.90;;;15.30;99.90;;;;;;5039400;28;20419;-83
2021/04/21 10:01:51;;;;;;;1999.90;999.90;;;15.40;99.90;;;;;;5057499;28;20424;-83
2021/04/21 10:04:24;;;;;;;1999.90;999.90;;;15.70;99.90;;;;;;5057950;28;20404;-83
2021/04/21 10:07:21;;;;;;;1999.90;999.90;;;15.80;99.90;;;;;;5040338;28;20525;-83
2021/04/21 10:09:57;;;;;;;1999.90;999.90;;;16.00;99.90;;;;;;5040154;28;20429;-83
2021/04/21 10:12:42;;;;;;;1999.90;999.90;;;16.30;99.90;;;;;;5057859;28;20394;-83
2021/04/21 10:15:31;;;;;;;;;;;;;;;;;;;;;
2021/04/21 10:18:10;;;;;;;1999.90;999.90;;;16.30;99.90;;;;;;5057486;28;20443;-83
2021/04/21 10:20:48;;;;;;;1999.90;999.90;;;16.10;99.90;;;;;;5038939;28;20852;-83
2021/04/21 10:23:42;;;;;;;1999.90;999.90;;;16.10;99.90;;;;;;5039813;28;20399;-84
2021/04/21 10:26:31;;;;;;;1999.90;999.90;;;16.20;99.90;;;;;;5037693;28;20452;-83
2021/04/21 10:29:00;;;;;;;1999.90;999.90;;;16.30;99.90;;;;;;5039592;28;20400;-83
2021/04/21 10:31:44;;;;;;;1999.90;999.90;;;16.40;99.90;;;;;;5039336;28;20419;-84
2021/04/21 10:34:30;;;;;;;1999.90;999.90;;;16.50;99.90;;;;;;5057351;28;20896;-84
2021/04/21 10:37:05;;;;;;;1999.90;999.90;;;16.60;99.90;;;;;;5039098;28;20427;-84
2021/04/21 10:40:15;;;;;;;1999.90;999.90;;;16.60;99.90;;;;;;5039358;28;20391;-83
2021/04/21 10:42:59;;;;;;;1999.90;999.90;;;16.60;99.90;;;;;;5056073;28;20478;-84
2021/04/21 10:45:54;;;;;;;1999.90;999.90;;;16.70;99.90;;;;;;5056436;28;20375;-84
2021/04/21 10:49:08;;;;;;;1999.90;999.90;;;16.70;99.90;;;;;;5056816;28;20428;-84
2021/04/21 10:52:08;;;;;;;1999.90;999.90;;;16.80;99.90;;;;;;5023393;28;20469;-83
2021/04/21 10:54:34;;;;;;;1999.90;999.90;;;16.80;99.90;;;;;;5038186;28;20440;-84
2021/04/21 10:57:46;;;;;;;;;;;;;;;;;;;;;
2021/04/21 11:00:49;;;;;;;1999.90;999.90;;;17.10;99.90;;;;;;5056956;28;20166;-84
2021/04/21 11:03:25;;;;;;;1999.90;999.90;;;17.40;99.90;;;;;;5039035;28;20439;-85
2021/04/21 11:06:38;;;;;;;1999.90;999.90;;;17.60;99.90;;;;;;5057145;28;20385;-84
2021/04/21 11:09:40;;;;;;;1999.90;999.90;;;17.70;99.90;;;;;;5011075;28;20470;-83
2021/04/21 11:12:52;;;;;;;1999.90;999.90;;;17.80;99.90;;;;;;5054419;28;20499;-84
2021/04/21 11:19:27;;;;;;;;;;;;;;;;;;;;;
2021/04/21 11:22:24;;;;;;;;;;;;;;;;;;;;;
2021/04/21 11:25:38;;;;;;;1999.90;999.90;;;18.00;96.10;;;;;;5056634;28;20455;-84
2021/04/21 11:42:26;;;;;;;;;;;;;;;;;;;;;
2021/04/21 11:48:26;;;;;;;1999.90;999.90;;;19.30;47.50;;;;;;5185366;22;20506;-80
2021/04/21 12:04:02;;;;;;;;;;;;;;;;;;;;;
2021/04/21 12:06:52;;;;;;;1999.90;999.90;;;19.70;5.90;;;;;;5011702;28;20433;-83
2021/04/21 12:13:39;;;;;;;;;;;;;;;;;;;;;
2021/04/21 12:22:06;;;;;;;1999.90;999.90;;;19.80;2.40;;;;;;5053275;22;20471;-84
2021/04/21 12:24:32;;;;;;;1999.90;999.90;;;19.70;1.00;;;;;;5053936;28;20400;-84
2021/04/21 12:33:24;;;;;;;1999.90;999.90;;;19.60;1.00;;;;;;4975124;28;20418;-84
2021/04/21 12:36:24;;;;;;;1999.90;999.90;;;19.50;1.00;;;;;;4955053;29;20404;-84
2021/04/21 12:39:15;;;;;;;1999.90;999.90;;;19.10;1.00;;;;;;4936031;29;20417;-83
2021/04/21 12:42:23;;;;;;;1999.90;999.90;;;19.10;1.00;;;;;;4936259;29;20932;-83
2021/04/21 12:44:57;;;;;;;1999.90;999.90;;;19.20;1.00;;;;;;4923915;29;20401;-83
2021/04/21 12:48:10;;;;;;;1999.90;999.90;;;19.30;1.00;;;;;;4935184;29;20956;-83
2021/04/21 12:51:20;;;;;;;1999.90;999.90;;;19.40;1.00;;;;;;4928556;29;21010;-84
2021/04/21 12:57:50;;;;;;;1999.90;999.90;;;19.20;1.00;;;;;;4925657;29;20475;-84
2021/04/21 13:04:00;;;;;;;1999.90;999.90;;;19.40;1.00;;;;;;4935876;29;20920;-84
2021/04/21 13:13:49;;;;;;;1999.90;999.90;;;19.40;1.00;;;;;;4865655;29;20415;-83
2021/04/21 13:16:43;;;;;;;1999.90;999.90;;;19.20;1.00;;;;;;4882814;29;20459;-83
2021/04/21 13:19:56;;;;;;;1999.90;999.90;;;19.10;1.00;;;;;;4939332;29;20408;-83
2021/04/21 13:26:25;;;;;;;1999.90;999.90;;;19.40;1.00;;;;;;4939916;29;20404;-84
2021/04/21 13:32:21;;;;;;;1999.90;999.90;;;19.10;1.00;;;;;;4928464;29;20467;-84
2021/04/21 13:35:11;;;;;;;1999.90;999.90;;;19.20;1.00;;;;;;4923115;29;20412;-84
2021/04/21 13:37:46;;;;;;;1999.90;999.90;;;19.10;1.00;;;;;;4920994;29;20867;-84
2021/04/21 13:40:20;;;;;;;1999.90;999.90;;;19.20;1.00;;;;;;5001241;28;20916;-84
2021/04/21 13:42:54;;;;;;;1999.90;999.90;;;19.20;1.00;;;;;;5002724;28;20392;-83
2021/04/21 13:51:49;;;;;;;1999.90;999.90;;;19.20;1.00;;;;;;5188216;22;20541;-79
2021/04/21 13:54:14;;;;;;;1999.90;999.90;;;19.30;1.00;;;;;;5059307;28;20797;-79
2021/04/21 13:56:41;;;;;;;1999.90;999.90;;;19.10;1.00;;;;;;5059476;28;20196;-79
2021/04/21 13:59:07;;;;;;;1999.90;999.90;;;19.10;1.00;;;;;;5059761;28;20161;-79
2021/04/21 14:01:37;;;;;;;1999.90;999.90;;;19.20;1.00;;;;;;5042246;28;20403;-79
2021/04/21 14:04:04;;;;;;;1999.90;999.90;;;19.00;1.00;;;;;;5041859;28;20412;-79
2021/04/21 14:06:29;;;;;;;1999.90;999.90;;;19.10;1.00;;;;;;5058801;28;20415;-79
2021/04/21 14:08:56;;;;;;;1999.90;999.90;;;19.10;1.00;;;;;;5060190;28;20391;-79
2021/04/21 14:11:21;;;;;;;1999.90;999.90;;;19.10;1.00;;;;;;5059481;28;20172;-79
2021/04/21 14:13:47;;;;;;;1999.90;999.90;;;19.00;1.00;;;;;;5059523;28;20407;-80
2021/04/21 14:16:13;;;;;;;1999.90;999.90;;;19.00;1.00;;;;;;5042543;28;20218;-79
2021/04/21 14:18:39;;;;;;;1999.90;999.90;;;19.20;1.00;;;;;;5061502;28;20192;-79
2021/04/21 14:21:05;;;;;;;1999.90;999.90;;;19.30;1.00;;;;;;5060874;28;20457;-79
2021/04/21 14:23:31;;;;;;;1999.90;999.90;;;19.10;1.00;;;;;;5060030;28;20398;-79
2021/04/21 14:25:57;;;;;;;1999.90;999.90;;;19.30;1.00;;;;;;5061039;28;20762;-79
2021/04/21 14:28:24;;;;;;;1999.90;999.90;;;19.20;1.00;;;;;;5060593;28;20427;-79